.
WxDataArchive / Data Records for 2013-09-19
2013-09-18 September 2013 2013-09-20

Data Records for Thursday, 19 September 2013

Time	Temp	Chill	HIndex	Humid	Dewpt	 Wind 	HiWind	WindDir	Rain 	Barom 
-----	----	-----	------	-----	-----	------	------	-------	-----	----- 
00:00	65.0	65.0	65.0	65	52.9	0	0	---	0.00	30.006 
00:05	65.2	65.2	65.2	64	52.7	0	0	---	0.00	30.006 
00:10	65.2	65.2	65.2	65	53.1	0	0	---	0.00	30.006 
00:15	65.3	65.3	65.3	65	53.2	0	0	---	0.00	30.003 
00:20	65.3	65.3	65.3	65	53.2	0	0	---	0.00	30.003 
00:25	65.3	65.3	65.3	65	53.2	0	0	---	0.00	30.003 
00:30	65.3	65.3	65.3	66	53.6	0	0	---	0.00	30.004 
00:35	65.5	65.5	65.5	67	54.2	0	0	---	0.00	30.004 
00:40	65.8	65.8	65.8	69	55.3	0	0	---	0.00	30.004 
00:45	66.1	66.1	66.1	71	56.4	0	0	---	0.00	30.008 
00:50	66.6	66.6	66.6	72	57.3	0	0	---	0.00	30.008 
00:55	66.9	66.9	66.9	73	58.0	0	0	---	0.00	30.008 
01:00	67.3	67.3	67.3	73	58.3	0	0	---	0.00	30.003 
01:05	67.4	67.4	67.4	74	58.8	0	0	---	0.00	30.003 
01:10	67.4	67.4	67.4	75	59.2	0	0	---	0.00	30.003 
01:15	67.4	67.4	67.4	75	59.2	0	0	---	0.00	29.998 
01:20	67.4	67.4	67.4	76	59.6	0	0	---	0.00	29.998 
01:25	67.4	67.4	67.4	76	59.6	0	0	---	0.00	29.998 
01:30	67.4	67.4	67.4	77	59.9	0	0	---	0.00	29.998 
01:35	67.4	67.4	67.4	78	60.3	0	0	---	0.00	29.998 
01:40	67.3	67.3	67.3	78	60.2	0	0	---	0.00	29.998 
01:45	67.3	67.3	67.3	79	60.6	0	0	---	0.00	30.003 
01:50	67.3	67.3	67.3	80	60.9	0	0	---	0.00	30.003 
01:55	67.3	67.3	67.3	81	61.3	0	0	---	0.00	30.003 
02:00	67.4	67.4	67.4	81	61.4	0	0	---	0.00	30.006 
02:05	67.6	67.6	67.6	82	61.9	0	1	90	0.00	30.006 
02:10	67.6	67.6	67.6	82	61.9	0	0	---	0.00	30.006 
02:15	67.8	67.8	67.8	82	62.1	0	0	---	0.00	30.001 
02:20	67.8	67.8	67.8	83	62.4	0	1	90	0.00	30.001 
02:25	67.8	67.8	67.8	83	62.4	0	0	---	0.00	30.001 
02:30	67.8	67.8	67.8	83	62.4	0	0	---	0.00	29.999 
02:35	67.8	67.8	67.8	84	62.8	0	0	---	0.00	29.999 
02:40	67.8	67.8	67.8	84	62.8	0	0	---	0.00	29.999 
02:45	67.8	67.8	67.8	85	63.1	0	0	---	0.00	30.004 
02:50	67.6	67.6	67.6	86	63.3	0	0	---	0.01	30.004 
02:55	67.4	67.4	67.4	87	63.4	0	0	---	0.00	30.004 
03:00	67.3	67.3	67.3	87	63.3	0	0	---	0.00	29.999 
03:05	67.3	67.3	67.3	88	63.6	0	0	---	0.01	29.999 
03:10	67.1	67.1	67.1	88	63.4	0	0	---	0.00	29.999 
03:15	66.9	66.9	66.9	89	63.5	0	0	---	0.01	29.995 
03:20	66.8	66.8	66.8	89	63.4	0	0	---	0.00	29.995 
03:25	66.8	66.8	66.8	90	63.8	0	0	---	0.00	29.995 
03:30	66.6	66.6	66.6	90	63.6	0	0	---	0.01	29.993 
03:35	66.4	66.4	66.4	90	63.4	0	0	---	0.01	29.993 
03:40	66.4	66.4	66.4	91	63.7	0	0	---	0.01	29.993 
03:45	66.3	66.3	66.3	91	63.6	0	0	---	0.01	29.991 
03:50	66.3	66.3	66.3	91	63.6	0	0	---	0.00	29.991 
03:55	66.3	66.3	66.3	91	63.6	0	0	---	0.01	29.991 
04:00	66.1	66.1	66.1	92	63.7	0	0	---	0.00	29.991 
04:05	66.1	66.1	66.1	92	63.7	0	0	---	0.01	29.991 
04:10	66.1	66.1	66.1	92	63.7	0	1	90	0.01	29.991 
04:15	66.3	66.3	66.3	92	63.9	0	1	90	0.01	29.986 
04:20	66.3	66.3	66.3	92	63.9	0	1	90	0.01	29.986 
04:25	66.1	66.1	66.1	93	64.0	0	1	90	0.01	29.986 
04:30	66.1	66.1	66.1	93	64.0	0	0	---	0.01	29.982 
04:35	66.1	66.1	66.1	93	64.0	0	0	---	0.00	29.982 
04:40	66.0	66.0	66.0	93	63.9	0	0	---	0.00	29.982 
04:45	66.1	66.1	66.1	93	64.0	0	1	90	0.01	29.979 
04:50	66.1	66.1	66.1	93	64.0	0	0	---	0.00	29.979 
04:55	66.1	66.1	66.1	93	64.0	0	0	---	0.01	29.979 
05:00	66.1	66.1	66.1	94	64.3	0	0	---	0.00	29.969 
05:05	66.0	66.0	66.0	94	64.2	0	0	---	0.00	29.969 
05:10	66.0	66.0	66.0	94	64.2	0	0	---	0.00	29.969 
05:15	66.0	66.0	66.0	94	64.2	0	0	---	0.00	29.968 
05:20	65.8	65.8	65.8	94	64.0	0	0	---	0.00	29.968 
05:25	65.8	65.8	65.8	94	64.0	0	0	---	0.00	29.968 
05:30	65.6	65.6	65.6	94	63.8	0	0	---	0.00	29.970 
05:35	65.6	65.6	65.6	94	63.8	0	0	---	0.00	29.970 
05:40	65.6	65.6	65.6	94	63.8	0	0	---	0.00	29.970 
05:45	65.6	65.6	65.6	94	63.8	0	0	---	0.00	29.970 
05:50	65.5	65.5	65.5	94	63.7	0	0	---	0.00	29.970 
05:55	65.5	65.5	65.5	94	63.7	0	0	---	0.00	29.970 
06:00	65.5	65.5	65.5	94	63.7	0	0	---	0.00	29.980 
06:05	65.6	65.6	65.6	95	64.1	0	0	---	0.00	29.980 
06:10	65.8	65.8	65.8	95	64.3	0	0	---	0.00	29.980 
06:15	65.8	65.8	65.8	95	64.3	0	0	---	0.00	29.985 
06:20	66.0	66.0	66.0	95	64.5	0	0	---	0.00	29.985 
06:25	66.0	66.0	66.0	95	64.5	0	2	90	0.00	29.985 
06:30	66.1	66.1	66.1	95	64.6	0	2	90	0.00	29.981 
06:35	66.1	66.1	66.1	95	64.6	0	1	90	0.00	29.981 
06:40	66.1	66.1	66.1	95	64.6	0	1	90	0.00	29.981 
06:45	66.1	66.1	66.1	95	64.6	0	1	90	0.00	29.985 
06:50	66.0	66.0	66.0	95	64.5	0	1	90	0.00	29.985 
06:55	66.0	66.0	66.0	95	64.5	0	1	90	0.00	29.985 
07:00	66.0	66.0	66.0	95	64.5	0	1	90	0.00	29.987 
07:05	66.0	66.0	66.0	95	64.5	0	1	90	0.00	29.987 
07:10	65.8	65.8	65.8	95	64.3	0	1	90	0.00	29.987 
07:15	65.8	65.8	65.8	95	64.3	0	0	---	0.00	29.998 
07:20	65.6	65.6	65.6	95	64.1	0	0	---	0.00	29.998 
07:25	65.6	65.6	65.6	95	64.1	0	1	90	0.00	29.998 
07:30	65.5	65.5	65.5	95	64.0	0	1	90	0.00	30.005 
07:35	65.5	65.5	65.5	95	64.0	0	0	---	0.00	30.005 
07:40	65.3	65.3	65.3	95	63.8	0	1	90	0.00	30.005 
07:45	65.3	65.3	65.3	95	63.8	0	0	---	0.00	30.018 
07:50	65.3	65.3	65.3	95	63.8	0	1	90	0.00	30.018 
07:55	65.3	65.3	65.3	95	63.8	0	1	90	0.00	30.018 
08:00	65.3	65.3	65.3	95	63.8	0	1	90	0.00	30.026 
08:05	65.5	65.5	65.5	95	64.0	0	1	90	0.00	30.026 
08:10	65.5	65.5	65.5	95	64.0	0	1	90	0.00	30.026 
08:15	65.3	65.3	65.3	95	63.8	0	1	90	0.00	30.023 
08:20	65.3	65.3	65.3	95	63.8	0	1	90	0.00	30.023 
08:25	65.3	65.3	65.3	95	63.8	0	1	90	0.00	30.023 
08:30	65.3	65.3	65.3	95	63.8	0	1	90	0.00	30.021 
08:35	65.3	65.3	65.3	95	63.8	0	1	90	0.00	30.021 
08:40	65.3	65.3	65.3	96	64.1	0	1	90	0.00	30.021 
08:45	65.5	65.5	65.5	96	64.3	0	1	90	0.00	30.022 
08:50	65.6	65.6	65.6	96	64.4	0	0	---	0.00	30.022 
08:55	65.6	65.6	65.6	96	64.4	0	1	90	0.00	30.022 
09:00	65.6	65.6	65.6	96	64.4	0	1	90	0.00	30.017 
09:05	65.8	65.8	65.8	96	64.6	0	1	90	0.00	30.017 
09:10	65.8	65.8	65.8	96	64.6	0	1	90	0.00	30.017 
09:15	65.8	65.8	65.8	95	64.3	0	1	90	0.00	30.012 
09:20	65.8	65.8	65.8	96	64.6	0	1	90	0.00	30.012 
09:25	65.6	65.6	65.6	96	64.4	0	1	90	0.00	30.012 
09:30	65.8	65.8	65.8	96	64.6	0	0	---	0.00	30.008 
09:35	66.1	66.1	66.1	96	64.9	0	1	90	0.00	30.008 
09:40	66.3	66.3	66.3	96	65.1	0	1	90	0.00	30.008 
09:45	66.4	66.4	66.4	96	65.2	0	1	90	0.00	30.021 
09:50	66.6	66.6	66.6	96	65.4	0	1	90	0.00	30.021 
09:55	66.6	66.6	66.6	95	65.1	0	2	90	0.00	30.021 
10:00	66.4	66.4	66.4	95	64.9	0	1	90	0.00	30.022 
10:05	66.6	66.6	66.6	95	65.1	0	1	90	0.00	30.022 
10:10	66.8	66.8	66.8	95	65.3	0	1	90	0.00	30.022 
10:15	67.1	67.1	67.1	95	65.6	0	1	90	0.00	30.018 
10:20	67.1	67.1	67.1	95	65.6	0	0	---	0.00	30.018 
10:25	67.3	67.3	67.3	95	65.8	0	1	90	0.00	30.018 
10:30	67.4	67.4	67.4	95	65.9	0	1	90	0.00	30.017 
10:35	67.6	67.6	67.6	95	66.1	0	1	90	0.00	30.017 
10:40	67.8	67.8	67.8	94	66.0	0	2	90	0.00	30.017 
10:45	67.8	67.8	67.8	94	66.0	0	3	90	0.00	30.009 
10:50	68.3	68.3	68.3	94	66.5	0	3	90	0.00	30.009 
10:55	68.9	68.9	68.9	94	67.1	0	2	90	0.00	30.009 
11:00	69.6	69.6	69.6	93	67.5	0	1	90	0.00	30.009 
11:05	69.4	69.4	69.4	91	66.7	0	2	90	0.00	30.009 
11:10	69.6	69.6	69.6	91	66.8	0	1	90	0.00	30.009 
11:15	70.4	70.4	70.4	91	67.6	0	2	90	0.00	30.020 
11:20	70.6	70.6	70.6	89	67.2	0	2	90	0.00	30.020 
11:25	70.8	70.8	70.8	88	67.1	0	3	90	0.00	30.020 
11:30	71.1	71.1	71.1	88	67.4	0	1	90	0.00	30.020 
11:35	71.8	71.8	71.8	87	67.7	0	1	90	0.00	30.020 
11:40	72.5	72.5	72.5	85	67.7	0	1	90	0.00	30.020 
11:45	73.2	73.2	73.2	84	68.1	0	2	90	0.00	30.009 
11:50	74.2	74.2	74.2	82	68.3	0	1	292	0.00	30.009 
11:55	74.7	74.7	74.7	78	67.4	0	1	292	0.00	30.009 
12:00	75.3	75.3	76.2	78	68.0	0	2	292	0.00	30.010 
12:05	75.8	75.8	77.0	76	67.7	0	2	0	0.00	30.010 
12:10	75.6	75.6	77.0	74	66.7	0	1	0	0.00	30.010 
12:15	75.8	75.8	77.0	76	67.7	0	2	0	0.00	30.002 
12:20	76.1	76.1	77.5	74	67.2	0	1	0	0.00	30.002 
12:25	76.1	76.1	77.6	73	66.8	0	0	---	0.00	30.002 
12:30	76.1	76.1	77.5	74	67.2	0	1	0	0.00	30.000 
12:35	76.1	76.1	77.6	73	66.8	0	2	0	0.00	30.000 
12:40	76.3	76.3	77.8	74	67.4	0	2	0	0.00	30.000 
12:45	76.3	76.3	77.8	73	67.0	0	1	0	0.00	29.996 
12:50	76.1	76.1	77.5	75	67.6	0	1	0	0.00	29.996 
12:55	76.1	76.1	77.5	74	67.2	0	1	0	0.00	29.996 
13:00	76.1	76.1	77.5	74	67.2	0	1	0	0.00	29.988 
13:05	76.0	76.0	77.4	75	67.5	0	1	0	0.00	29.988 
13:10	75.6	75.6	77.0	74	66.7	0	1	0	0.00	29.988 
13:15	75.4	75.4	76.5	76	67.3	0	2	0	0.00	29.999 
13:20	75.3	75.3	76.4	76	67.2	0	2	0	0.00	29.999 
13:25	75.3	75.3	76.4	76	67.2	0	2	0	0.00	29.999 
13:30	74.9	74.9	74.9	76	66.8	1	2	0	0.00	30.000 
13:35	74.9	74.9	74.9	77	67.2	1	2	0	0.00	30.000 
13:40	74.7	74.7	74.7	77	67.0	1	2	0	0.00	30.000 
13:45	74.7	74.7	74.7	77	67.0	1	3	292	0.00	30.004 
13:50	74.6	74.6	74.6	77	66.9	1	4	292	0.00	30.004 
13:55	74.4	74.4	74.4	77	66.7	1	3	292	0.00	30.004 
14:00	74.0	74.0	74.0	79	67.1	1	3	292	0.00	30.001 
14:05	73.5	73.5	73.5	81	67.3	1	3	292	0.00	30.001 
14:10	73.2	73.2	73.2	82	67.4	1	4	292	0.01	30.001 
14:15	72.5	72.5	72.5	84	67.4	0	2	292	0.01	29.995 
14:20	72.0	72.0	72.0	86	67.6	0	0	---	0.01	29.995 
14:25	71.6	71.6	71.6	87	67.5	0	0	---	0.00	29.995 
14:30	71.3	71.3	71.3	88	67.6	0	0	---	0.00	29.988 
14:35	71.1	71.1	71.1	88	67.4	0	1	292	0.00	29.988 
14:40	70.8	70.8	70.8	89	67.4	0	0	---	0.00	29.988 
14:45	70.6	70.6	70.6	89	67.2	0	1	292	0.00	30.004 
14:50	70.4	70.4	70.4	90	67.3	0	1	292	0.00	30.004 
14:55	70.1	70.1	70.1	90	67.0	0	1	292	0.01	30.004 
15:00	69.9	69.9	69.9	91	67.1	0	2	292	0.01	30.005 
15:05	69.8	69.8	69.8	91	67.0	0	1	292	0.02	30.005 
15:10	69.6	69.6	69.6	92	67.2	0	1	292	0.01	30.005 
15:15	69.6	69.6	69.6	92	67.2	0	1	292	0.00	30.019 
15:20	69.4	69.4	69.4	92	67.0	1	3	292	0.02	30.019 
15:25	68.9	68.9	68.9	92	66.5	0	3	292	0.09	30.019 
15:30	68.4	68.4	68.4	92	66.0	0	2	292	0.04	30.023 
15:35	68.1	68.1	68.1	92	65.7	0	1	292	0.02	30.023 
15:40	67.9	67.9	67.9	93	65.8	0	2	292	0.04	30.023 
15:45	67.9	67.9	67.9	93	65.8	0	1	292	0.01	30.017 
15:50	67.9	67.9	67.9	93	65.8	0	0	---	0.06	30.017 
15:55	68.1	68.1	68.1	94	66.3	0	1	292	0.01	30.017 
16:00	68.1	68.1	68.1	94	66.3	0	0	---	0.01	30.006 
16:05	68.1	68.1	68.1	94	66.3	0	0	---	0.00	30.006 
16:10	68.3	68.3	68.3	94	66.5	0	0	---	0.01	30.006 
16:15	68.3	68.3	68.3	94	66.5	0	2	292	0.00	29.990 
16:20	68.3	68.3	68.3	94	66.5	0	2	292	0.00	29.990 
16:25	68.3	68.3	68.3	94	66.5	0	1	292	0.00	29.990 
16:30	68.3	68.3	68.3	95	66.8	0	0	---	0.00	29.974 
16:35	68.3	68.3	68.3	95	66.8	0	1	292	0.00	29.974 
16:40	68.4	68.4	68.4	95	66.9	0	1	292	0.00	29.974 
16:45	68.3	68.3	68.3	95	66.8	0	1	292	0.00	29.965 
16:50	68.3	68.3	68.3	95	66.8	0	1	292	0.00	29.965 
16:55	68.3	68.3	68.3	95	66.8	0	1	292	0.00	29.965 
17:00	68.3	68.3	68.3	95	66.8	0	1	292	0.00	29.959 
17:05	68.4	68.4	68.4	95	66.9	0	0	---	0.00	29.959 
17:10	68.4	68.4	68.4	95	66.9	0	1	292	0.00	29.959 
17:15	68.4	68.4	68.4	95	66.9	0	0	---	0.00	29.954 
17:20	68.4	68.4	68.4	95	66.9	0	1	292	0.00	29.954 
17:25	68.4	68.4	68.4	95	66.9	0	1	292	0.00	29.954 
17:30	68.6	68.6	68.6	95	67.1	0	0	---	0.00	29.942 
17:35	68.6	68.6	68.6	95	67.1	0	1	292	0.00	29.942 
17:40	68.8	68.8	68.8	95	67.3	0	1	292	0.00	29.942 
17:45	68.9	68.9	68.9	95	67.4	0	1	292	0.00	29.943 
17:50	68.9	68.9	68.9	95	67.4	0	1	292	0.00	29.943 
17:55	68.9	68.9	68.9	95	67.4	0	1	292	0.00	29.943 
18:00	68.9	68.9	68.9	95	67.4	0	0	---	0.00	29.937 
18:05	68.9	68.9	68.9	95	67.4	0	2	292	0.00	29.937 
18:10	68.9	68.9	68.9	95	67.4	0	1	292	0.00	29.937 
18:15	68.9	68.9	68.9	95	67.4	0	3	292	0.00	29.931 
18:20	68.8	68.8	68.8	95	67.3	0	2	270	0.00	29.931 
18:25	68.8	68.8	68.8	95	67.3	0	2	270	0.00	29.931 
18:30	68.9	68.9	68.9	95	67.4	0	2	0	0.00	29.921 
18:35	68.9	68.9	68.9	95	67.4	0	2	0	0.00	29.921 
18:40	68.9	68.9	68.9	95	67.4	0	1	0	0.00	29.921 
18:45	68.9	68.9	68.9	95	67.4	0	4	112	0.00	29.913 
18:50	68.9	68.9	68.9	95	67.4	0	1	112	0.00	29.913 
18:55	68.9	68.9	68.9	95	67.4	0	2	112	0.00	29.913 
19:00	68.9	68.9	68.9	95	67.4	0	1	112	0.00	29.911 
19:05	68.9	68.9	68.9	95	67.4	0	1	225	0.00	29.911 
19:10	68.9	68.9	68.9	95	67.4	0	2	225	0.00	29.911 
19:15	68.9	68.9	68.9	95	67.4	0	1	225	0.00	29.910 
19:20	68.8	68.8	68.8	95	67.3	0	1	225	0.00	29.910 
19:25	68.8	68.8	68.8	95	67.3	0	1	225	0.00	29.910 
19:30	68.8	68.8	68.8	95	67.3	0	2	90	0.00	29.896 
19:35	68.6	68.6	68.6	95	67.1	0	1	90	0.00	29.896 
19:40	68.6	68.6	68.6	95	67.1	0	1	90	0.00	29.896 
19:45	68.4	68.4	68.4	95	66.9	0	1	90	0.00	29.896 
19:50	68.4	68.4	68.4	95	66.9	0	1	90	0.00	29.896 
19:55	68.4	68.4	68.4	94	66.6	0	0	---	0.00	29.896 
20:00	68.3	68.3	68.3	94	66.5	0	1	90	0.00	29.891 
20:05	68.3	68.3	68.3	94	66.5	0	1	90	0.00	29.891 
20:10	68.3	68.3	68.3	94	66.5	0	1	90	0.00	29.891 
20:15	68.1	68.1	68.1	94	66.3	0	1	90	0.00	29.889 
20:20	68.1	68.1	68.1	94	66.3	0	0	---	0.00	29.889 
20:25	68.1	68.1	68.1	94	66.3	0	0	---	0.00	29.889 
20:30	67.9	67.9	67.9	94	66.1	0	0	---	0.00	29.893 
20:35	67.9	67.9	67.9	94	66.1	0	0	---	0.00	29.893 
20:40	67.9	67.9	67.9	94	66.1	0	2	90	0.00	29.893 
20:45	67.9	67.9	67.9	94	66.1	0	0	---	0.00	29.895 
20:50	67.9	67.9	67.9	94	66.1	0	0	---	0.00	29.895 
20:55	67.8	67.8	67.8	94	66.0	0	0	---	0.00	29.895 
21:00	67.8	67.8	67.8	94	66.0	0	0	---	0.00	29.903 
21:05	67.6	67.6	67.6	94	65.8	0	0	---	0.00	29.903 
21:10	67.6	67.6	67.6	94	65.8	0	0	---	0.00	29.903 
21:15	67.6	67.6	67.6	94	65.8	0	0	---	0.00	29.914 
21:20	67.4	67.4	67.4	94	65.6	0	0	---	0.00	29.914 
21:25	67.4	67.4	67.4	94	65.6	0	0	---	0.00	29.914 
21:30	67.4	67.4	67.4	94	65.6	0	0	---	0.00	29.927 
21:35	67.4	67.4	67.4	94	65.6	0	0	---	0.00	29.927 
21:40	67.6	67.6	67.6	94	65.8	0	0	---	0.00	29.927 
21:45	67.6	67.6	67.6	94	65.8	0	1	90	0.00	29.925 
21:50	67.8	67.8	67.8	94	66.0	0	1	90	0.00	29.925 
21:55	67.9	67.9	67.9	94	66.1	0	0	---	0.00	29.925 
22:00	67.9	67.9	67.9	94	66.1	0	1	90	0.00	29.928 
22:05	67.9	67.9	67.9	94	66.1	0	1	90	0.00	29.928 
22:10	68.1	68.1	68.1	94	66.3	0	0	---	0.00	29.928 
22:15	68.1	68.1	68.1	94	66.3	0	1	90	0.00	29.925 
22:20	68.3	68.3	68.3	94	66.5	0	1	90	0.00	29.925 
22:25	68.4	68.4	68.4	94	66.6	0	0	---	0.00	29.925 
22:30	68.4	68.4	68.4	94	66.6	0	0	---	0.00	29.931 
22:35	68.4	68.4	68.4	94	66.6	0	1	90	0.00	29.931 
22:40	68.6	68.6	68.6	93	66.5	0	0	---	0.00	29.931 
22:45	68.6	68.6	68.6	93	66.5	0	0	---	0.00	29.931 
22:50	68.8	68.8	68.8	93	66.7	0	0	---	0.00	29.931 
22:55	68.8	68.8	68.8	93	66.7	0	0	---	0.00	29.931 
23:00	68.9	68.9	68.9	93	66.8	0	1	90	0.00	29.924 
23:05	69.1	69.1	69.1	93	67.0	0	1	90	0.00	29.924 
23:10	69.3	69.3	69.3	93	67.2	0	2	90	0.00	29.924 
23:15	69.3	69.3	69.3	92	66.9	0	1	90	0.00	29.907 
23:20	69.4	69.4	69.4	92	67.0	0	1	90	0.00	29.907 
23:25	69.6	69.6	69.6	92	67.2	0	1	90	0.00	29.907 
23:30	69.6	69.6	69.6	92	67.2	0	2	90	0.00	29.902 
23:35	69.6	69.6	69.6	92	67.2	0	1	90	0.00	29.902 
23:40	69.6	69.6	69.6	91	66.8	0	3	90	0.00	29.902 
23:45	69.8	69.8	69.8	91	67.0	0	2	90	0.00	29.891 
23:50	69.8	69.8	69.8	91	67.0	0	2	90	0.00	29.891 
23:55	69.8	69.8	69.8	91	67.0	0	1	90	0.00	29.891 

CoCoRaHS
IN-AL-39
A2 Web Hosting
Creative Commons License
GoDaddy
search engine by freefind advanced

loaded 2018-11-15 17:43:06 • last modified 2010-11-18 10:43:29
Privacy PolicyDisclaimer
• wx.awcolley.com is powered by PmWiki v.2002016 •
• all content (unless otherwise noted) © 2018 A W Colley